Time;durP1;ratioP1;P1;durP2;ratioP2;P2;SDS_P1;SDS_P2;PMS_P1;PMS_P2;Temp;Humidity;BMP_temperature;BMP_pressure;BME280_temperature;BME280_humidity;BME280_pressure;Samples;Min_cycle;Max_cycle;Signal;HPM_P1;HPM_P2
2023/07/03 00:01:16;;;;;;;;;;;;;;;16.56;39.95;100099.03;4928040;28;99891;-68
2023/07/03 00:03:43;;;;;;;;;;;;;;;16.54;39.91;100093.09;4942886;28;98408;-69
2023/07/03 00:06:09;;;;;;;;;;;;;;;16.54;39.91;100095.81;4939268;28;98293;-68
2023/07/03 00:08:35;;;;;;;;;;;;;;;16.53;39.63;100096.94;4932146;28;100532;-68
2023/07/03 00:11:02;;;;;;;;;;;;;;;16.53;39.76;100099.66;4930389;28;98083;-69
2023/07/03 00:13:29;;;;;;;;;;;;;;;16.52;39.94;100098.06;4947945;28;98528;-72
2023/07/03 00:16:01;;;;;;;;;;;;;;;16.51;39.84;100096.47;4944428;28;98257;-72
2023/07/03 00:18:28;;;;;;;;;;;;;;;16.47;39.76;100093.56;4940219;28;98379;-72
2023/07/03 00:20:55;;;;;;;;;;;;;;;16.47;40.10;100093.56;4927555;28;98198;-72
2023/07/03 00:23:22;;;;;;;;;;;;;;;16.46;40.01;100102.81;4924119;28;99911;-68
2023/07/03 00:25:49;;;;;;;;;;;;;;;16.44;39.94;100096.91;4927702;28;98308;-68
2023/07/03 00:28:16;;;;;;;;;;;;;;;16.40;40.08;100098.66;4942757;28;98152;-72
2023/07/03 00:30:43;;;;;;;;;;;;;;;16.36;39.97;100094.97;4924066;28;99887;-68
2023/07/03 00:33:10;;;;;;;;;;;;;;;16.33;39.69;100088.22;4927654;28;98201;-72
2023/07/03 00:35:37;;;;;;;;;;;;;;;16.31;40.11;100095.91;4925580;28;99509;-66
2023/07/03 00:38:03;;;;;;;;;;;;;;;16.28;40.15;100085.66;4944031;28;98721;-68
2023/07/03 00:40:30;;;;;;;;;;;;;;;16.30;39.77;100085.31;4941887;28;98120;-72
2023/07/03 00:42:56;;;;;;;;;;;;;;;16.28;40.10;100090.28;4921363;28;98179;-72
2023/07/03 00:45:23;;;;;;;;;;;;;;;16.26;39.92;100085.16;4943148;28;98536;-72
2023/07/03 00:47:49;;;;;;;;;;;;;;;16.24;39.94;100083.88;4929945;28;98183;-67
2023/07/03 00:50:15;;;;;;;;;;;;;;;16.23;40.01;100088.53;4926094;28;98183;-72
2023/07/03 00:52:42;;;;;;;;;;;;;;;16.19;39.92;100093.78;4927996;28;98153;-69
2023/07/03 00:55:10;;;;;;;;;;;;;;;16.18;40.08;100091.34;4941472;28;98127;-72
2023/07/03 00:57:36;;;;;;;;;;;;;;;16.19;39.89;100096.50;4949179;28;99421;-68
2023/07/03 01:00:06;;;;;;;;;;;;;;;16.20;39.99;100087.22;4921324;28;98305;-72
2023/07/03 01:02:38;;;;;;;;;;;;;;;16.20;40.05;100084.50;4924169;28;98317;-72
2023/07/03 01:05:31;;;;;;;;;;;;;;;16.22;39.84;100086.09;4928395;28;98852;-67
2023/07/03 01:07:58;;;;;;;;;;;;;;;16.20;40.22;100081.78;4938958;28;98640;-67
2023/07/03 01:10:25;;;;;;;;;;;;;;;16.18;39.93;100085.94;4930025;28;98377;-72
2023/07/03 01:12:55;;;;;;;;;;;;;;;16.17;40.15;100084.31;4928873;28;98126;-68
2023/07/03 01:15:23;;;;;;;;;;;;;;;16.17;40.08;100076.16;4944533;28;97997;-67
2023/07/03 01:17:53;;;;;;;;;;;;;;;16.14;39.92;100069.44;4927339;28;98532;-72
2023/07/03 01:20:20;;;;;;;;;;;;;;;16.14;39.97;100063.19;4924762;28;99912;-68
2023/07/03 01:23:04;;;;;;;;;;;;;;;16.10;39.99;100057.59;4926583;28;98550;-68
2023/07/03 01:25:30;;;;;;;;;;;;;;;16.07;40.06;100054.69;4924612;28;98238;-67
2023/07/03 01:27:58;;;;;;;;;;;;;;;16.06;40.13;100059.31;4923497;28;98274;-67
2023/07/03 01:30:24;;;;;;;;;;;;;;;16.07;40.03;100057.41;4921257;28;98411;-72
2023/07/03 01:32:52;;;;;;;;;;;;;;;16.06;39.97;100044.94;4947386;28;100071;-72
2023/07/03 01:35:18;;;;;;;;;;;;;;;16.06;40.11;100050.38;4943347;28;99413;-72
2023/07/03 01:37:47;;;;;;;;;;;;;;;16.06;39.96;100043.00;4918142;28;98190;-72
2023/07/03 01:40:14;;;;;;;;;;;;;;;16.07;39.94;100035.66;4941478;28;98192;-72
2023/07/03 01:42:41;;;;;;;;;;;;;;;16.09;40.02;100039.69;4931924;28;98191;-68
2023/07/03 01:45:08;;;;;;;;;;;;;;;16.10;40.04;100029.59;4955354;28;99308;-68
2023/07/03 01:47:34;;;;;;;;;;;;;;;16.11;40.18;100031.19;4923276;28;98569;-71
2023/07/03 01:50:00;;;;;;;;;;;;;;;16.13;39.87;100039.84;4926936;28;98059;-72
2023/07/03 01:52:32;;;;;;;;;;;;;;;16.12;40.21;100036.34;4943248;28;99259;-68
2023/07/03 01:55:20;;;;;;;;;;;;;;;16.13;40.10;100042.56;4927023;28;97999;-67
2023/07/03 01:58:06;;;;;;;;;;;;;;;16.13;40.21;100043.38;4923221;28;98003;-68
2023/07/03 02:00:52;;;;;;;;;;;;;;;16.12;40.18;100047.22;4921854;28;98419;-67
2023/07/03 02:03:22;;;;;;;;;;;;;;;16.12;40.01;100038.25;4919891;28;97982;-68
2023/07/03 02:05:49;;;;;;;;;;;;;;;16.12;40.11;100038.25;4952600;28;98202;-67
2023/07/03 02:08:16;;;;;;;;;;;;;;;16.10;39.97;100030.41;4944654;27;98458;-72
2023/07/03 02:10:43;;;;;;;;;;;;;;;16.08;40.21;100029.94;4932936;28;100248;-68
2023/07/03 02:13:09;;;;;;;;;;;;;;;16.07;40.24;100035.66;4928005;27;98464;-72
2023/07/03 02:15:36;;;;;;;;;;;;;;;16.06;40.06;100039.50;4929413;27;98031;-72
2023/07/03 02:18:02;;;;;;;;;;;;;;;16.07;40.22;100041.09;4934173;27;100985;-68
2023/07/03 02:20:29;;;;;;;;;;;;;;;16.06;40.05;100031.34;4928752;27;99873;-71
2023/07/03 02:22:56;;;;;;;;;;;;;;;16.05;39.98;100029.75;4945573;27;99900;-73
2023/07/03 02:25:22;;;;;;;;;;;;;;;16.02;40.18;100035.81;4945048;27;98274;-68
2023/07/03 02:27:50;;;;;;;;;;;;;;;16.00;39.98;100038.06;4933172;27;98486;-72
2023/07/03 02:30:16;;;;;;;;;;;;;;;15.97;40.21;100030.53;4925418;27;98473;-72
2023/07/03 02:32:42;;;;;;;;;;;;;;;15.96;40.27;100035.16;4942504;28;100499;-67
2023/07/03 02:35:09;;;;;;;;;;;;;;;15.94;40.30;100029.22;4942922;28;97982;-67
2023/07/03 02:37:37;;;;;;;;;;;;;;;15.93;40.21;100027.63;4925264;28;98093;-67
2023/07/03 02:40:10;;;;;;;;;;;;;;;15.92;40.04;100023.31;4948278;27;98482;-72
2023/07/03 02:42:36;;;;;;;;;;;;;;;15.89;40.31;100018.50;4929681;28;98041;-72
2023/07/03 02:45:03;;;;;;;;;;;;;;;15.88;40.36;100016.91;4927987;28;98054;-72
2023/07/03 02:47:35;;;;;;;;;;;;;;;15.90;40.20;100017.38;4928867;27;98880;-72
2023/07/03 02:50:04;;;;;;;;;;;;;;;15.91;40.38;100018.97;4931856;27;98132;-71
2023/07/03 02:52:31;;;;;;;;;;;;;;;15.91;40.28;100006.19;4945830;28;98377;-67
2023/07/03 02:54:58;;;;;;;;;;;;;;;15.92;40.37;100009.72;4940023;27;99607;-72
2023/07/03 02:57:24;;;;;;;;;;;;;;;15.97;40.14;100004.13;4946310;28;98267;-71
2023/07/03 02:59:51;;;;;;;;;;;;;;;16.02;40.32;99997.75;4924727;28;100307;-67
2023/07/03 03:02:19;;;;;;;;;;;;;;;16.06;40.18;100009.59;4931461;27;98455;-67
2023/07/03 03:04:45;;;;;;;;;;;;;;;16.09;40.14;99995.38;4927804;27;98004;-67
2023/07/03 03:07:12;;;;;;;;;;;;;;;16.12;40.19;100009.16;4931078;28;99155;-67
2023/07/03 03:09:38;;;;;;;;;;;;;;;16.16;40.15;99998.44;4933996;27;98068;-72
2023/07/03 03:12:04;;;;;;;;;;;;;;;16.21;40.22;100003.72;4928531;28;97803;-72
2023/07/03 03:14:31;;;;;;;;;;;;;;;16.26;40.09;100008.22;4934031;28;99175;-71
2023/07/03 03:16:58;;;;;;;;;;;;;;;16.30;40.04;100001.03;4925926;27;98369;-67
2023/07/03 03:19:24;;;;;;;;;;;;;;;16.34;40.13;99997.34;4929121;27;99044;-71
2023/07/03 03:21:51;;;;;;;;;;;;;;;16.38;39.98;99997.53;4935764;27;97971;-67
2023/07/03 03:24:17;;;;;;;;;;;;;;;16.42;40.10;99998.50;4929859;28;99424;-67
2023/07/03 03:26:44;;;;;;;;;;;;;;;16.45;40.20;99995.94;4932380;27;98242;-67
2023/07/03 03:29:10;;;;;;;;;;;;;;;16.50;40.09;99991.47;4950063;27;98140;-67
2023/07/03 03:31:36;;;;;;;;;;;;;;;16.53;40.06;99988.13;4929632;28;98137;-72
2023/07/03 03:34:03;;;;;;;;;;;;;;;16.56;39.99;99987.47;4927254;27;98144;-67
2023/07/03 03:36:32;;;;;;;;;;;;;;;16.59;40.14;99984.94;4926811;27;98132;-67
2023/07/03 03:38:59;;;;;;;;;;;;;;;16.61;40.01;99984.59;4926541;28;99101;-67
2023/07/03 03:41:25;;;;;;;;;;;;;;;16.64;39.93;99983.97;4947458;28;98731;-72
2023/07/03 03:43:52;;;;;;;;;;;;;;;16.68;40.01;99993.09;4925005;28;98051;-68
2023/07/03 03:46:18;;;;;;;;;;;;;;;16.72;39.93;99987.81;4931120;28;100885;-67
2023/07/03 03:48:45;;;;;;;;;;;;;;;16.74;40.01;99986.41;4925745;27;98253;-72
2023/07/03 03:51:11;;;;;;;;;;;;;;;16.78;40.06;99992.00;4935410;27;97897;-72
2023/07/03 03:53:41;;;;;;;;;;;;;;;16.81;39.85;99997.59;4936451;28;98623;-67
2023/07/03 03:56:07;;;;;;;;;;;;;;;16.85;39.97;99993.13;4940685;28;98204;-67
2023/07/03 03:58:34;;;;;;;;;;;;;;;16.85;40.08;99995.03;4943848;28;98150;-67
2023/07/03 04:01:01;;;;;;;;;;;;;;;16.85;39.97;99992.31;4932180;28;98194;-71
2023/07/03 04:03:27;;;;;;;;;;;;;;;16.89;40.03;99990.56;4950583;28;98051;-72
2023/07/03 04:05:54;;;;;;;;;;;;;;;16.91;40.04;99983.69;4930812;27;98026;-72
2023/07/03 04:08:21;;;;;;;;;;;;;;;16.96;39.92;99985.44;4934115;27;97814;-71
2023/07/03 04:10:48;;;;;;;;;;;;;;;17.00;39.87;99980.16;4923367;27;98060;-67
2023/07/03 04:13:14;;;;;;;;;;;;;;;17.01;39.87;99979.03;4930292;28;97942;-67
2023/07/03 04:15:54;;;;;;;;;;;;;;;17.04;39.99;99986.56;4931703;27;98462;-71
2023/07/03 04:18:20;;;;;;;;;;;;;;;17.07;39.84;99980.47;4947792;28;98719;-67
2023/07/03 04:20:48;;;;;;;;;;;;;;;17.09;39.77;99979.00;4927931;27;98291;-72
2023/07/03 04:23:15;;;;;;;;;;;;;;;17.13;39.90;99984.59;4930729;27;98316;-72
2023/07/03 04:25:44;;;;;;;;;;;;;;;17.14;39.84;99983.50;4933703;27;98203;-67
2023/07/03 04:28:11;;;;;;;;;;;;;;;17.20;39.90;99990.38;4931377;27;98301;-67
2023/07/03 04:30:38;;;;;;;;;;;;;;;17.27;39.89;99992.63;4943154;27;97955;-67
2023/07/03 04:33:04;;;;;;;;;;;;;;;17.36;39.79;99993.38;4926641;28;99316;-67
2023/07/03 04:35:30;;;;;;;;;;;;;;;17.41;39.83;99999.47;4930690;27;98223;-67
2023/07/03 04:37:57;;;;;;;;;;;;;;;17.46;39.72;99995.78;4927288;27;98496;-72
2023/07/03 04:40:23;;;;;;;;;;;;;;;17.49;39.91;100000.59;4932922;28;98655;-67
2023/07/03 04:42:50;;;;;;;;;;;;;;;17.52;39.87;99996.38;4945331;27;98040;-67
2023/07/03 04:45:16;;;;;;;;;;;;;;;17.59;39.76;99993.97;4929538;27;98153;-67
2023/07/03 04:47:43;;;;;;;;;;;;;;;17.67;39.68;99991.22;4921333;28;98248;-72
2023/07/03 04:50:10;;;;;;;;;;;;;;;17.73;39.83;100002.75;4941308;27;98191;-67
2023/07/03 04:52:38;;;;;;;;;;;;;;;17.73;39.91;100001.97;4944575;27;98236;-71
2023/07/03 04:55:06;;;;;;;;;;;;;;;17.79;39.69;100003.41;4925002;28;100820;-67
2023/07/03 04:57:32;;;;;;;;;;;;;;;17.84;39.83;99990.41;4922808;27;98016;-67
2023/07/03 05:00:00;;;;;;;;;;;;;;;17.91;39.83;100003.50;4927932;27;98366;-72
2023/07/03 05:02:27;;;;;;;;;;;;;;;18.00;39.57;99998.84;4929775;28;99576;-67
2023/07/03 05:04:54;;;;;;;;;;;;;;;18.12;39.59;99998.94;4929742;27;98543;-67
2023/07/03 05:07:21;;;;;;;;;;;;;;;18.32;39.58;99994.63;4945099;27;98168;-72
2023/07/03 05:09:47;;;;;;;;;;;;;;;18.51;39.24;99996.94;4942339;27;98398;-67
2023/07/03 05:12:14;;;;;;;;;;;;;;;18.65;39.09;100002.13;4928551;27;98583;-67
2023/07/03 05:14:40;;;;;;;;;;;;;;;18.81;39.30;100000.41;4921384;28;98203;-67
2023/07/03 05:17:07;;;;;;;;;;;;;;;18.89;39.30;99999.53;4928775;27;98228;-67
2023/07/03 05:19:33;;;;;;;;;;;;;;;19.03;39.27;99998.47;4926198;27;98209;-72
2023/07/03 05:22:00;;;;;;;;;;;;;;;19.38;38.82;99996.22;4926142;27;98665;-72
2023/07/03 05:24:26;;;;;;;;;;;;;;;19.61;38.73;100005.66;4923255;27;98173;-67
2023/07/03 05:26:52;;;;;;;;;;;;;;;19.72;38.86;100000.50;4926999;27;100930;-67
2023/07/03 05:29:19;;;;;;;;;;;;;;;19.95;38.56;99998.16;4927007;27;99839;-72
2023/07/03 05:31:45;;;;;;;;;;;;;;;20.20;38.42;100001.69;4946310;27;98406;-72
2023/07/03 05:34:11;;;;;;;;;;;;;;;20.69;38.24;99998.13;4928832;27;98775;-67
2023/07/03 05:36:38;;;;;;;;;;;;;;;20.80;38.20;100002.75;4925399;27;98095;-68
2023/07/03 05:39:05;;;;;;;;;;;;;;;20.79;38.44;100003.13;4931621;27;98217;-67
2023/07/03 05:41:31;;;;;;;;;;;;;;;20.54;38.72;100010.56;4946915;27;98047;-67
2023/07/03 05:43:58;;;;;;;;;;;;;;;20.34;38.92;100006.81;4931899;27;98262;-71
2023/07/03 05:46:24;;;;;;;;;;;;;;;20.21;39.17;100010.69;4928239;28;98783;-67
2023/07/03 05:48:50;;;;;;;;;;;;;;;20.43;38.84;100012.94;4943391;27;99868;-72
2023/07/03 05:51:17;;;;;;;;;;;;;;;20.99;38.34;100007.59;4935472;27;98859;-72
2023/07/03 05:53:44;;;;;;;;;;;;;;;21.36;38.19;100018.44;4928729;28;98208;-67
2023/07/03 05:56:10;;;;;;;;;;;;;;;21.86;38.01;100011.50;4929130;27;99710;-67
2023/07/03 05:58:37;;;;;;;;;;;;;;;22.19;37.84;100019.38;4947173;28;98304;-67
2023/07/03 06:01:03;;;;;;;;;;;;;;;22.03;38.25;100019.38;4925882;28;97981;-67
2023/07/03 06:03:31;;;;;;;;;;;;;;;22.22;38.12;100024.16;4929527;27;98062;-68
2023/07/03 06:05:58;;;;;;;;;;;;;;;22.86;37.67;100022.03;4929132;28;98019;-67
2023/07/03 06:08:24;;;;;;;;;;;;;;;23.47;37.36;100021.31;4927051;28;97941;-73
2023/07/03 06:10:52;;;;;;;;;;;;;;;23.92;37.38;100021.72;4943034;27;98121;-72
2023/07/03 06:13:19;;;;;;;;;;;;;;;23.97;37.55;100032.41;4931666;27;98069;-67
2023/07/03 06:15:45;;;;;;;;;;;;;;;23.67;38.21;100038.63;4934973;27;97884;-72
2023/07/03 06:18:11;;;;;;;;;;;;;;;24.38;37.16;100024.44;4933226;27;98039;-73
2023/07/03 06:20:38;;;;;;;;;;;;;;;24.92;36.91;100026.00;4927184;28;98245;-68
2023/07/03 06:23:05;;;;;;;;;;;;;;;25.61;36.83;100031.09;4944964;27;98303;-67
2023/07/03 06:25:31;;;;;;;;;;;;;;;26.36;36.61;100024.25;4930494;28;98451;-73
2023/07/03 06:27:58;;;;;;;;;;;;;;;27.02;36.23;100040.03;4943843;28;98631;-68
2023/07/03 06:30:24;;;;;;;;;;;;;;;27.12;36.46;100044.84;4928915;28;98901;-68
2023/07/03 06:32:50;;;;;;;;;;;;;;;26.39;37.24;100040.06;4931434;28;98426;-73
2023/07/03 06:35:17;;;;;;;;;;;;;;;25.68;38.06;100042.22;4923200;27;98780;-73
2023/07/03 06:37:44;;;;;;;;;;;;;;;25.11;38.36;100036.88;4925800;27;98198;-67
2023/07/03 06:40:11;;;;;;;;;;;;;;;24.87;38.09;100046.38;4926614;28;98864;-67
2023/07/03 06:42:38;;;;;;;;;;;;;;;25.34;37.68;100044.22;4930453;27;99712;-67
2023/07/03 06:45:04;;;;;;;;;;;;;;;25.73;37.43;100041.84;4935593;27;99497;-68
2023/07/03 06:47:31;;;;;;;;;;;;;;;26.09;36.97;100048.50;4933035;28;99151;-68
2023/07/03 06:49:57;;;;;;;;;;;;;;;26.80;36.34;100037.19;4934309;27;98225;-74
2023/07/03 06:52:24;;;;;;;;;;;;;;;27.31;36.13;100043.72;4933542;28;98429;-68
2023/07/03 06:54:50;;;;;;;;;;;;;;;27.87;35.73;100050.59;4949442;27;99869;-68
2023/07/03 06:57:16;;;;;;;;;;;;;;;28.46;35.68;100042.66;4928794;28;97819;-72
2023/07/03 06:59:43;;;;;;;;;;;;;;;28.83;35.12;100042.16;4942713;28;98069;-73
2023/07/03 07:02:10;;;;;;;;;;;;;;;29.18;35.37;100046.00;4923947;27;98038;-72
2023/07/03 07:04:37;;;;;;;;;;;;;;;29.77;34.76;100048.84;4945696;28;98958;-73
2023/07/03 07:07:03;;;;;;;;;;;;;;;30.44;34.72;100043.16;4935168;27;98286;-69
2023/07/03 07:09:29;;;;;;;;;;;;;;;31.05;34.01;100043.28;4924912;28;98382;-74
2023/07/03 07:11:56;;;;;;;;;;;;;;;31.52;34.13;100049.81;4929879;28;99411;-73
2023/07/03 07:14:23;;;;;;;;;;;;;;;32.06;33.72;100046.22;4937361;27;97952;-74
2023/07/03 07:16:50;;;;;;;;;;;;;;;32.44;33.46;100048.75;4931752;27;98251;-74
2023/07/03 07:19:17;;;;;;;;;;;;;;;32.70;33.61;100042.28;4926511;28;100061;-70
2023/07/03 07:21:43;;;;;;;;;;;;;;;33.03;33.89;100038.88;4936186;27;97960;-70
2023/07/03 07:24:15;;;;;;;;;;;;;;;33.46;33.75;100038.75;4929316;27;98625;-74
2023/07/03 07:26:41;;;;;;;;;;;;;;;33.95;33.39;100030.38;4930619;28;98858;-70
2023/07/03 07:29:07;;;;;;;;;;;;;;;34.37;33.08;100036.13;4930049;27;99107;-70
2023/07/03 07:31:36;;;;;;;;;;;;;;;34.66;32.96;100033.34;4934409;27;98159;-70
2023/07/03 07:34:04;;;;;;;;;;;;;;;34.73;33.23;100021.94;4949221;27;97929;-70
2023/07/03 07:36:30;;;;;;;;;;;;;;;32.68;35.28;100018.81;4931976;28;97934;-69
2023/07/03 07:38:57;;;;;;;;;;;;;;;32.34;35.41;100019.03;4928653;28;101127;-70
2023/07/03 07:41:24;;;;;;;;;;;;;;;33.65;33.79;100028.72;4933697;28;98057;-70
2023/07/03 07:43:51;;;;;;;;;;;;;;;34.49;33.09;100029.03;4931281;27;98089;-70
2023/07/03 07:46:18;;;;;;;;;;;;;;;34.72;33.39;100028.78;4930450;27;98595;-69
2023/07/03 07:48:46;;;;;;;;;;;;;;;34.40;33.59;100033.22;4945486;27;98118;-74
2023/07/03 07:51:12;;;;;;;;;;;;;;;34.71;33.86;100038.41;4931593;27;98250;-67
2023/07/03 07:53:39;;;;;;;;;;;;;;;35.42;32.86;100033.50;4927147;27;98002;-67
2023/07/03 07:56:07;;;;;;;;;;;;;;;36.43;32.14;100021.78;4929060;27;97959;-68
2023/07/03 07:58:33;;;;;;;;;;;;;;;36.58;32.54;100036.91;4940857;27;97931;-72
2023/07/03 08:01:00;;;;;;;;;;;;;;;37.01;32.14;100047.34;4929156;27;98168;-67
2023/07/03 08:03:26;;;;;;;;;;;;;;;37.16;32.12;100044.00;4946133;28;98338;-71
2023/07/03 08:06:00;;;;;;;;;;;;;;;38.40;30.95;100043.81;4947891;28;98016;-71
2023/07/03 08:08:27;;;;;;;;;;;;;;;39.02;31.25;100040.59;4923049;27;99411;-67
2023/07/03 08:10:57;;;;;;;;;;;;;;;39.95;30.50;100044.59;4930735;27;99188;-68
2023/07/03 08:13:24;;;;;;;;;;;;;;;38.80;31.74;100037.22;4948698;28;99713;-72
2023/07/03 08:15:51;;;;;;;;;;;;;;;38.10;32.82;100039.84;4932444;27;98145;-72
2023/07/03 08:18:18;;;;;;;;;;;;;;;38.06;32.43;100034.38;4930594;28;100849;-67
2023/07/03 08:20:45;;;;;;;;;;;;;;;39.85;30.71;100036.69;4948440;28;98455;-71
2023/07/03 08:23:11;;;;;;;;;;;;;;;39.69;31.15;100018.91;4922991;27;98036;-68
2023/07/03 08:25:37;;;;;;;;;;;;;;;39.05;31.89;100024.78;4928943;27;98267;-72
2023/07/03 08:28:04;;;;;;;;;;;;;;;37.40;32.98;100033.03;4935379;28;98234;-72
2023/07/03 08:30:31;;;;;;;;;;;;;;;36.65;33.76;100038.69;4947545;27;99201;-71
2023/07/03 08:32:57;;;;;;;;;;;;;;;38.27;31.99;100034.69;4924503;28;99012;-71
2023/07/03 08:35:24;;;;;;;;;;;;;;;36.11;33.74;100035.69;4926980;27;98429;-67
2023/07/03 08:37:52;;;;;;;;;;;;;;;37.23;32.69;100024.88;4932010;27;99029;-67
2023/07/03 08:40:19;;;;;;;;;;;;;;;37.37;32.53;100039.59;4930532;27;98174;-67
2023/07/03 08:42:53;;;;;;;;;;;;;;;37.69;32.50;100036.31;4925616;27;98033;-71
2023/07/03 08:45:21;;;;;;;;;;;;;;;38.33;31.38;100044.13;4959002;27;98627;-71
2023/07/03 08:47:48;;;;;;;;;;;;;;;37.69;32.01;100027.88;4927458;28;98116;-70
2023/07/03 08:50:16;;;;;;;;;;;;;;;40.17;30.01;100041.50;4931241;27;98087;-71
2023/07/03 08:52:49;;;;;;;;;;;;;;;41.31;29.60;100023.31;4932987;28;99742;-74
2023/07/03 08:55:20;;;;;;;;;;;;;;;42.29;29.16;100048.38;4930932;27;98013;-66
2023/07/03 08:57:46;;;;;;;;;;;;;;;40.55;30.81;100036.34;4945537;27;99202;-71
2023/07/03 09:00:13;;;;;;;;;;;;;;;38.52;32.63;100014.72;4929261;27;98508;-71
2023/07/03 09:02:46;;;;;;;;;;;;;;;39.11;31.74;100022.13;4931160;27;98309;-66
2023/07/03 09:05:25;;;;;;;;;;;;;;;39.70;31.21;100028.94;4928583;27;98486;-71
2023/07/03 09:07:54;;;;;;;;;;;;;;;39.30;31.46;100022.84;4948178;27;97989;-70
2023/07/03 09:10:24;;;;;;;;;;;;;;;37.21;32.91;100009.72;4930729;27;97870;-66
2023/07/03 09:12:52;;;;;;;;;;;;;;;38.10;32.34;100006.09;4956881;27;98316;-71
2023/07/03 09:15:50;;;;;;;;;;;;;;;36.64;33.55;100015.44;4966865;27;98369;-66
2023/07/03 09:18:19;;;;;;;;;;;;;;;35.76;33.87;100006.03;4945554;27;99287;-66
2023/07/03 09:20:45;;;;;;;;;;;;;;;37.42;31.91;100013.75;4932073;28;99366;-71
2023/07/03 09:23:29;;;;;;;;;;;;;;;38.13;31.33;100035.31;4947105;27;98376;-71
2023/07/03 09:26:09;;;;;;;;;;;;;;;35.16;34.12;100041.09;4926016;27;98379;-70
2023/07/03 09:28:37;;;;;;;;;;;;;;;34.58;34.38;100040.38;4931488;27;97913;-70
2023/07/03 09:31:04;;;;;;;;;;;;;;;36.54;32.42;100033.44;4946148;28;99862;-66
2023/07/03 09:33:30;;;;;;;;;;;;;;;34.84;33.85;100030.03;4930243;27;98227;-66
2023/07/03 09:35:57;;;;;;;;;;;;;;;35.23;33.04;100030.94;4928264;27;98696;-65
2023/07/03 09:38:24;;;;;;;;;;;;;;;36.20;32.31;100040.63;4928978;28;98612;-69
2023/07/03 09:40:54;;;;;;;;;;;;;;;37.43;30.99;100052.59;4946940;27;98148;-68
2023/07/03 09:43:24;;;;;;;;;;;;;;;39.00;30.08;100026.22;4931840;28;98107;-74
2023/07/03 09:45:51;;;;;;;;;;;;;;;37.36;31.84;100055.66;4926831;28;99712;-73
2023/07/03 09:48:27;;;;;;;;;;;;;;;39.33;29.83;100062.13;4918803;27;98188;-68
2023/07/03 09:50:53;;;;;;;;;;;;;;;40.61;29.15;100069.09;4929321;27;115408;-69
2023/07/03 09:53:21;;;;;;;;;;;;;;;42.02;28.58;100062.94;4931920;28;98715;-73
2023/07/03 09:55:55;;;;;;;;;;;;;;;38.86;31.35;100060.66;4946510;27;98115;-73
2023/07/03 09:58:23;;;;;;;;;;;;;;;41.17;29.36;100069.31;4933198;27;106271;-70
2023/07/03 10:00:51;;;;;;;;;;;;;;;40.51;30.42;100064.75;4945555;28;98140;-66
2023/07/03 10:03:26;;;;;;;;;;;;;;;42.41;29.03;100069.88;4923371;28;98371;-66
2023/07/03 10:05:53;;;;;;;;;;;;;;;43.24;28.27;100087.47;4930977;27;100035;-66
2023/07/03 10:08:22;;;;;;;;;;;;;;;43.16;28.71;100081.47;4929438;28;98371;-66
2023/07/03 10:10:49;;;;;;;;;;;;;;;44.06;28.22;100076.44;4929363;27;97981;-70
2023/07/03 10:13:24;;;;;;;;;;;;;;;43.51;29.13;100057.75;4928927;27;98123;-66
2023/07/03 10:15:54;;;;;;;;;;;;;;;41.30;30.59;100046.41;4928419;27;98217;-65
2023/07/03 10:18:30;;;;;;;;;;;;;;;42.40;29.25;100065.47;4952755;27;98216;-70
2023/07/03 10:20:56;;;;;;;;;;;;;;;42.76;29.46;100071.00;4943387;27;97957;-66
2023/07/03 10:23:31;;;;;;;;;;;;;;;43.77;28.70;100063.34;4952441;28;99839;-69
2023/07/03 10:26:21;;;;;;;;;;;;;;;43.44;29.06;100066.72;4929003;27;99986;-66
2023/07/03 10:29:07;;;;;;;;;;;;;;;43.98;28.77;100067.63;4912947;27;98345;-66
2023/07/03 10:31:36;;;;;;;;;;;;;;;44.40;28.71;100077.34;4940325;28;98178;-66
2023/07/03 10:34:11;;;;;;;;;;;;;;;44.64;28.60;100068.34;4949810;27;98232;-65
2023/07/03 10:36:39;;;;;;;;;;;;;;;44.89;28.47;100074.38;4948066;27;98592;-71
2023/07/03 10:39:07;;;;;;;;;;;;;;;45.05;28.60;100057.34;4934471;28;98119;-71
2023/07/03 10:41:56;;;;;;;;;;;;;;;45.13;28.51;100068.22;4944220;27;98381;-66
2023/07/03 10:44:32;;;;;;;;;;;;;;;44.63;29.01;100058.28;4951232;28;98042;-70
2023/07/03 10:47:22;;;;;;;;;;;;;;;43.36;29.86;100058.69;4947212;27;97889;-66
2023/07/03 10:49:48;;;;;;;;;;;;;;;43.15;30.33;100065.72;4950136;27;98081;-66
2023/07/03 10:52:29;;;;;;;;;;;;;;;43.38;30.02;100061.78;4933451;28;97952;-70
2023/07/03 10:54:58;;;;;;;;;;;;;;;43.37;29.81;100060.22;4930676;28;98191;-66
2023/07/03 10:57:30;;;;;;;;;;;;;;;43.38;29.64;100067.44;4978935;27;100838;-69
2023/07/03 10:59:58;;;;;;;;;;;;;;;43.59;29.53;100068.16;4952499;27;98371;-66
2023/07/03 11:02:26;;;;;;;;;;;;;;;43.14;29.66;100059.28;4935266;28;98048;-71
2023/07/03 11:05:09;;;;;;;;;;;;;;;43.48;29.66;100058.78;4969128;27;98276;-70
2023/07/03 11:07:47;;;;;;;;;;;;;;;44.20;28.91;100055.56;4946739;28;100654;-69
2023/07/03 11:10:17;;;;;;;;;;;;;;;41.82;31.02;100050.31;4944976;28;99415;-70
2023/07/03 11:13:04;;;;;;;;;;;;;;;43.35;29.25;100045.78;4948267;28;98875;-70
2023/07/03 11:15:45;;;;;;;;;;;;;;;41.29;30.85;100051.28;4941832;28;99775;-66
2023/07/03 11:18:17;;;;;;;;;;;;;;;42.69;29.43;100043.94;4961864;28;100158;-65
2023/07/03 11:20:46;;;;;;;;;;;;;;;43.07;29.47;100037.06;4955242;28;98141;-65
2023/07/03 11:23:20;;;;;;;;;;;;;;;42.37;30.19;100040.22;4946251;28;97858;-70
2023/07/03 11:26:04;;;;;;;;;;;;;;;42.82;29.38;100054.84;4944490;28;98111;-68
2023/07/03 11:28:35;;;;;;;;;;;;;;;42.64;29.84;100047.44;4944235;28;98670;-65
2023/07/03 11:31:02;;;;;;;;;;;;;;;42.49;29.99;100029.78;4938439;28;98671;-65
2023/07/03 11:33:29;;;;;;;;;;;;;;;41.22;30.89;100020.59;4928453;28;98376;-65
2023/07/03 11:35:56;;;;;;;;;;;;;;;40.26;31.42;100037.06;4924152;28;97953;-65
2023/07/03 11:38:23;;;;;;;;;;;;;;;39.09;32.37;100036.66;4929247;28;98096;-69
2023/07/03 11:40:55;;;;;;;;;;;;;;;39.11;32.16;100037.00;4918837;28;98074;-69
2023/07/03 11:43:21;;;;;;;;;;;;;;;39.38;31.73;100038.97;4957870;28;98359;-65
2023/07/03 11:45:56;;;;;;;;;;;;;;;39.70;31.31;100031.00;4957341;28;100086;-64
2023/07/03 11:48:32;;;;;;;;;;;;;;;39.58;31.31;100041.22;4953021;28;99268;-69
2023/07/03 11:51:11;;;;;;;;;;;;;;;39.71;31.32;100038.97;4948409;28;98628;-66
2023/07/03 11:53:45;;;;;;;;;;;;;;;39.07;32.01;100030.75;4946253;28;98876;-66
2023/07/03 11:56:30;;;;;;;;;;;;;;;38.37;32.07;100043.97;4955382;28;98697;-70
2023/07/03 11:59:32;;;;;;;;;;;;;;;37.95;32.45;100036.06;4946277;28;98460;-70
2023/07/03 12:02:10;;;;;;;;;;;;;;;37.48;32.47;100056.81;4939520;28;98285;-65
2023/07/03 12:04:45;;;;;;;;;;;;;;;36.79;32.85;100058.59;4954258;28;97945;-69
2023/07/03 12:07:17;;;;;;;;;;;;;;;36.03;33.40;100053.22;4956879;28;98013;-72
2023/07/03 12:09:44;;;;;;;;;;;;;;;36.03;32.93;100061.63;4959113;28;98065;-68
2023/07/03 12:12:20;;;;;;;;;;;;;;;35.63;33.16;100056.50;4925713;28;102164;-72
2023/07/03 12:14:56;;;;;;;;;;;;;;;35.23;33.36;100054.09;4942867;28;98049;-68
2023/07/03 12:17:32;;;;;;;;;;;;;;;36.12;32.27;100059.72;4945291;28;98183;-72
2023/07/03 12:20:22;;;;;;;;;;;;;;;36.77;31.80;100066.66;4943491;28;98224;-68
2023/07/03 12:22:50;;;;;;;;;;;;;;;36.21;32.73;100059.03;4939643;28;118526;-73
2023/07/03 12:25:27;;;;;;;;;;;;;;;36.23;32.40;100056.53;4920556;28;100924;-68
2023/07/03 12:27:54;;;;;;;;;;;;;;;37.07;31.62;100056.00;4927279;28;98335;-69
2023/07/03 12:30:25;;;;;;;;;;;;;;;36.01;32.68;100064.13;4946905;28;98788;-73
2023/07/03 12:32:52;;;;;;;;;;;;;;;35.87;32.59;100063.31;4944415;28;99785;-67
2023/07/03 12:35:22;;;;;;;;;;;;;;;35.33;32.99;100075.41;4942600;28;99713;-67
2023/07/03 12:37:55;;;;;;;;;;;;;;;35.08;32.99;100066.97;4926170;28;98314;-72
2023/07/03 12:40:22;;;;;;;;;;;;;;;35.04;32.94;100061.47;4940123;28;98451;-66
2023/07/03 12:42:51;;;;;;;;;;;;;;;34.93;32.68;100058.16;4929522;28;108907;-70
2023/07/03 12:45:24;;;;;;;;;;;;;;;34.68;32.80;100062.44;4931294;28;98019;-70
2023/07/03 12:48:09;;;;;;;;;;;;;;;34.24;33.18;100057.66;4948127;28;98258;-70